sensor_id;sensor_type;location;lat;lon;timestamp;pressure;altitude;pressure_sealevel;temperature;humidity
38780;BME280;29273;49.962;9.768;2022-08-20T00:02:22;99526.75;;;24.11;46.66
38780;BME280;29273;49.962;9.768;2022-08-20T00:04:49;99530.88;;;24.09;46.54
38780;BME280;29273;49.962;9.768;2022-08-20T00:07:15;99533.09;;;24.07;46.99
38780;BME280;29273;49.962;9.768;2022-08-20T00:09:40;99527.16;;;24.05;46.77
38780;BME280;29273;49.962;9.768;2022-08-20T00:12:08;99538.25;;;24.03;46.83
38780;BME280;29273;49.962;9.768;2022-08-20T00:14:34;99535.06;;;24.01;46.68
38780;BME280;29273;49.962;9.768;2022-08-20T00:17:01;99537.56;;;23.97;46.77
38780;BME280;29273;49.962;9.768;2022-08-20T00:19:27;99530.34;;;23.93;46.96
38780;BME280;29273;49.962;9.768;2022-08-20T00:21:52;99530.63;;;23.91;47.04
38780;BME280;29273;49.962;9.768;2022-08-20T00:24:18;99526.63;;;23.89;46.80
38780;BME280;29273;49.962;9.768;2022-08-20T00:26:43;99531.53;;;23.87;47.12
38780;BME280;29273;49.962;9.768;2022-08-20T00:29:09;99533.72;;;23.85;47.03
38780;BME280;29273;49.962;9.768;2022-08-20T00:31:34;99539.72;;;23.81;47.39
38780;BME280;29273;49.962;9.768;2022-08-20T00:34:00;99536.47;;;23.79;47.42
38780;BME280;29273;49.962;9.768;2022-08-20T00:36:25;99537.91;;;23.77;47.21
38780;BME280;29273;49.962;9.768;2022-08-20T00:38:51;99538.47;;;23.74;47.06
38780;BME280;29273;49.962;9.768;2022-08-20T00:41:23;99548.72;;;23.77;46.17
38780;BME280;29273;49.962;9.768;2022-08-20T00:43:55;99545.28;;;23.71;46.52
38780;BME280;29273;49.962;9.768;2022-08-20T00:46:28;99544.56;;;23.65;47.04
38780;BME280;29273;49.962;9.768;2022-08-20T00:48:55;99552.16;;;23.63;46.98
38780;BME280;29273;49.962;9.768;2022-08-20T00:51:40;99557.88;;;23.62;45.87
38780;BME280;29273;49.962;9.768;2022-08-20T00:54:16;99552.75;;;23.60;46.01
38780;BME280;29273;49.962;9.768;2022-08-20T00:56:46;99566.34;;;23.55;46.44
38780;BME280;29273;49.962;9.768;2022-08-20T00:59:17;99562.13;;;23.49;46.76
38780;BME280;29273;49.962;9.768;2022-08-20T01:01:44;99568.38;;;23.44;47.10
38780;BME280;29273;49.962;9.768;2022-08-20T01:04:10;99563.06;;;23.39;47.55
38780;BME280;29273;49.962;9.768;2022-08-20T01:06:37;99564.47;;;23.37;47.30
38780;BME280;29273;49.962;9.768;2022-08-20T01:09:04;99563.44;;;23.33;47.64
38780;BME280;29273;49.962;9.768;2022-08-20T01:11:30;99558.09;;;23.27;47.89
38780;BME280;29273;49.962;9.768;2022-08-20T01:14:06;99563.72;;;23.31;46.88
38780;BME280;29273;49.962;9.768;2022-08-20T01:17:03;99564.91;;;23.25;47.41
38780;BME280;29273;49.962;9.768;2022-08-20T01:19:34;99566.78;;;23.24;47.32
38780;BME280;29273;49.962;9.768;2022-08-20T01:22:01;99569.34;;;23.16;48.01
38780;BME280;29273;49.962;9.768;2022-08-20T01:24:51;99570.34;;;23.20;47.48
38780;BME280;29273;49.962;9.768;2022-08-20T01:27:20;99583.13;;;23.14;48.27
38780;BME280;29273;49.962;9.768;2022-08-20T01:29:47;99586.91;;;23.13;48.16
38780;BME280;29273;49.962;9.768;2022-08-20T01:32:13;99581.00;;;23.11;48.60
38780;BME280;29273;49.962;9.768;2022-08-20T01:34:38;99589.41;;;23.09;48.51
38780;BME280;29273;49.962;9.768;2022-08-20T01:37:04;99584.28;;;23.08;48.61
38780;BME280;29273;49.962;9.768;2022-08-20T01:39:32;99593.72;;;23.11;47.83
38780;BME280;29273;49.962;9.768;2022-08-20T01:44:41;99590.28;;;23.05;47.92
38780;BME280;29273;49.962;9.768;2022-08-20T01:47:18;99594.06;;;23.04;47.08
38780;BME280;29273;49.962;9.768;2022-08-20T01:49:47;99591.69;;;22.97;47.83
38780;BME280;29273;49.962;9.768;2022-08-20T01:52:44;99583.16;;;22.90;46.90
38780;BME280;29273;49.962;9.768;2022-08-20T01:55:10;99583.44;;;22.88;48.72
38780;BME280;29273;49.962;9.768;2022-08-20T01:57:37;99589.13;;;22.87;48.28
38780;BME280;29273;49.962;9.768;2022-08-20T02:00:10;99595.84;;;22.89;47.33
38780;BME280;29273;49.962;9.768;2022-08-20T02:02:38;99595.38;;;22.82;48.41
38780;BME280;29273;49.962;9.768;2022-08-20T02:05:04;99596.47;;;22.81;48.62
38780;BME280;29273;49.962;9.768;2022-08-20T02:07:29;99592.47;;;22.79;48.71
38780;BME280;29273;49.962;9.768;2022-08-20T02:09:57;99586.25;;;22.78;49.10
38780;BME280;29273;49.962;9.768;2022-08-20T02:12:23;99593.56;;;22.78;48.92
38780;BME280;29273;49.962;9.768;2022-08-20T02:14:50;99588.94;;;22.78;48.68
38780;BME280;29273;49.962;9.768;2022-08-20T02:17:17;99594.66;;;22.77;49.01
38780;BME280;29273;49.962;9.768;2022-08-20T02:19:50;99596.75;;;22.80;48.49
38780;BME280;29273;49.962;9.768;2022-08-20T02:22:26;99589.19;;;22.82;47.57
38780;BME280;29273;49.962;9.768;2022-08-20T02:24:54;99588.72;;;22.75;49.20
38780;BME280;29273;49.962;9.768;2022-08-20T02:27:19;99587.94;;;22.74;48.75
38780;BME280;29273;49.962;9.768;2022-08-20T02:29:48;99589.00;;;22.73;49.09
38780;BME280;29273;49.962;9.768;2022-08-20T02:32:14;99593.91;;;22.71;49.67
38780;BME280;29273;49.962;9.768;2022-08-20T02:34:40;99595.56;;;22.67;49.50
38780;BME280;29273;49.962;9.768;2022-08-20T02:37:05;99608.25;;;22.66;49.46
38780;BME280;29273;49.962;9.768;2022-08-20T02:39:32;99602.84;;;22.66;49.35
38780;BME280;29273;49.962;9.768;2022-08-20T02:41:57;99596.94;;;22.64;49.60
38780;BME280;29273;49.962;9.768;2022-08-20T02:44:23;99603.13;;;22.65;49.21
38780;BME280;29273;49.962;9.768;2022-08-20T02:46:49;99606.16;;;22.63;49.34
38780;BME280;29273;49.962;9.768;2022-08-20T02:49:16;99603.72;;;22.62;49.42
38780;BME280;29273;49.962;9.768;2022-08-20T02:51:43;99602.13;;;22.61;49.50
38780;BME280;29273;49.962;9.768;2022-08-20T02:54:09;99608.06;;;22.58;49.75
38780;BME280;29273;49.962;9.768;2022-08-20T02:56:34;99601.38;;;22.55;49.83
38780;BME280;29273;49.962;9.768;2022-08-20T02:59:00;99598.13;;;22.53;49.91
38780;BME280;29273;49.962;9.768;2022-08-20T03:01:25;99606.00;;;22.49;50.00
38780;BME280;29273;49.962;9.768;2022-08-20T03:03:51;99608.19;;;22.47;50.03
38780;BME280;29273;49.962;9.768;2022-08-20T03:06:17;99604.16;;;22.45;50.27
38780;BME280;29273;49.962;9.768;2022-08-20T03:08:42;99600.94;;;22.43;50.00
38780;BME280;29273;49.962;9.768;2022-08-20T03:11:08;99597.72;;;22.41;49.82
38780;BME280;29273;49.962;9.768;2022-08-20T03:13:34;99594.81;;;22.37;49.79
38780;BME280;29273;49.962;9.768;2022-08-20T03:16:02;99589.69;;;22.35;49.85
38780;BME280;29273;49.962;9.768;2022-08-20T03:18:32;99596.16;;;22.34;49.71
38780;BME280;29273;49.962;9.768;2022-08-20T03:20:59;99597.31;;;22.28;50.23
38780;BME280;29273;49.962;9.768;2022-08-20T03:23:24;99593.25;;;22.26;50.40
38780;BME280;29273;49.962;9.768;2022-08-20T03:25:50;99600.00;;;22.23;50.42
38780;BME280;29273;49.962;9.768;2022-08-20T03:28:16;99604.09;;;22.21;50.20
38780;BME280;29273;49.962;9.768;2022-08-20T03:30:42;99603.59;;;22.18;50.14
38780;BME280;29273;49.962;9.768;2022-08-20T03:33:08;99606.06;;;22.15;50.47
38780;BME280;29273;49.962;9.768;2022-08-20T03:35:34;99609.81;;;22.14;50.22
38780;BME280;29273;49.962;9.768;2022-08-20T03:38:00;99609.88;;;22.09;50.48
38780;BME280;29273;49.962;9.768;2022-08-20T03:40:31;99617.97;;;22.09;49.88
38780;BME280;29273;49.962;9.768;2022-08-20T03:42:58;99609.41;;;22.02;50.47
38780;BME280;29273;49.962;9.768;2022-08-20T03:45:25;99606.41;;;22.03;49.90
38780;BME280;29273;49.962;9.768;2022-08-20T03:47:52;99615.91;;;21.95;50.43
38780;BME280;29273;49.962;9.768;2022-08-20T03:50:20;99619.91;;;21.98;50.26
38780;BME280;29273;49.962;9.768;2022-08-20T03:52:46;99617.00;;;21.94;50.84
38780;BME280;29273;49.962;9.768;2022-08-20T03:55:11;99617.25;;;21.93;50.89
38780;BME280;29273;49.962;9.768;2022-08-20T03:57:51;99619.91;;;21.98;49.03
38780;BME280;29273;49.962;9.768;2022-08-20T04:00:42;99619.97;;;21.93;48.55
38780;BME280;29273;49.962;9.768;2022-08-20T04:03:09;99618.94;;;21.89;50.29
38780;BME280;29273;49.962;9.768;2022-08-20T04:05:36;99628.88;;;21.88;50.00
38780;BME280;29273;49.962;9.768;2022-08-20T04:08:11;99625.91;;;21.90;49.45
38780;BME280;29273;49.962;9.768;2022-08-20T04:10:38;99620.84;;;21.83;50.56
38780;BME280;29273;49.962;9.768;2022-08-20T04:13:05;99624.09;;;21.85;50.00
38780;BME280;29273;49.962;9.768;2022-08-20T04:15:32;99628.13;;;21.83;50.70
38780;BME280;29273;49.962;9.768;2022-08-20T04:17:59;99637.28;;;21.81;50.63
38780;BME280;29273;49.962;9.768;2022-08-20T04:20:25;99633.81;;;21.81;50.54
38780;BME280;29273;49.962;9.768;2022-08-20T04:22:53;99627.84;;;21.84;50.50
38780;BME280;29273;49.962;9.768;2022-08-20T04:25:19;99641.59;;;21.83;50.78
38780;BME280;29273;49.962;9.768;2022-08-20T04:27:46;99637.84;;;21.84;50.82
38780;BME280;29273;49.962;9.768;2022-08-20T04:30:16;99639.44;;;21.85;50.77
38780;BME280;29273;49.962;9.768;2022-08-20T04:32:42;99645.66;;;21.85;51.03
38780;BME280;29273;49.962;9.768;2022-08-20T04:35:10;99641.81;;;21.91;50.42
38780;BME280;29273;49.962;9.768;2022-08-20T04:37:38;99651.00;;;21.90;50.73
38780;BME280;29273;49.962;9.768;2022-08-20T04:40:07;99651.75;;;21.96;50.45
38780;BME280;29273;49.962;9.768;2022-08-20T04:42:52;99649.34;;;21.94;50.84
38780;BME280;29273;49.962;9.768;2022-08-20T04:45:17;99648.78;;;21.97;50.83
38780;BME280;29273;49.962;9.768;2022-08-20T04:47:43;99656.03;;;22.02;50.71
38780;BME280;29273;49.962;9.768;2022-08-20T04:50:10;99650.09;;;22.05;50.50
38780;BME280;29273;49.962;9.768;2022-08-20T04:52:35;99654.38;;;22.06;50.63
38780;BME280;29273;49.962;9.768;2022-08-20T04:55:03;99654.31;;;22.11;50.67
38780;BME280;29273;49.962;9.768;2022-08-20T04:57:29;99658.66;;;22.12;51.48
38780;BME280;29273;49.962;9.768;2022-08-20T04:59:55;99653.78;;;22.14;51.34
38780;BME280;29273;49.962;9.768;2022-08-20T05:02:21;99662.69;;;22.15;51.51
38780;BME280;29273;49.962;9.768;2022-08-20T05:04:46;99660.78;;;22.15;51.45
38780;BME280;29273;49.962;9.768;2022-08-20T05:07:16;99664.75;;;22.23;50.79
38780;BME280;29273;49.962;9.768;2022-08-20T05:09:46;99665.63;;;22.18;51.45
38780;BME280;29273;49.962;9.768;2022-08-20T05:12:11;99668.84;;;22.21;51.71
38780;BME280;29273;49.962;9.768;2022-08-20T05:14:40;99670.97;;;22.24;51.49
38780;BME280;29273;49.962;9.768;2022-08-20T05:17:06;99671.47;;;22.26;51.44
38780;BME280;29273;49.962;9.768;2022-08-20T05:19:33;99677.41;;;22.28;50.95
38780;BME280;29273;49.962;9.768;2022-08-20T05:22:00;99674.44;;;22.29;51.02
38780;BME280;29273;49.962;9.768;2022-08-20T05:24:26;99668.78;;;22.31;50.90
38780;BME280;29273;49.962;9.768;2022-08-20T05:26:51;99661.47;;;22.31;51.13
38780;BME280;29273;49.962;9.768;2022-08-20T05:29:19;99669.84;;;22.35;51.04
38780;BME280;29273;49.962;9.768;2022-08-20T05:31:46;99669.56;;;22.37;51.10
38780;BME280;29273;49.962;9.768;2022-08-20T05:34:11;99676.25;;;22.39;51.12
38780;BME280;29273;49.962;9.768;2022-08-20T05:36:45;99674.03;;;22.46;50.29
38780;BME280;29273;49.962;9.768;2022-08-20T05:39:11;99681.09;;;22.42;51.24
38780;BME280;29273;49.962;9.768;2022-08-20T05:41:38;99675.94;;;22.46;50.89
38780;BME280;29273;49.962;9.768;2022-08-20T05:44:04;99680.25;;;22.47;50.71
38780;BME280;29273;49.962;9.768;2022-08-20T05:46:34;99682.38;;;22.50;50.64
38780;BME280;29273;49.962;9.768;2022-08-20T05:48:59;99680.47;;;22.50;50.51
38780;BME280;29273;49.962;9.768;2022-08-20T05:51:27;99678.81;;;22.54;50.20
38780;BME280;29273;49.962;9.768;2022-08-20T05:53:52;99680.72;;;22.54;50.36
38780;BME280;29273;49.962;9.768;2022-08-20T05:56:18;99677.44;;;22.57;50.38
38780;BME280;29273;49.962;9.768;2022-08-20T05:58:43;99678.75;;;22.60;50.36
38780;BME280;29273;49.962;9.768;2022-08-20T06:01:08;99687.13;;;22.63;50.41
38780;BME280;29273;49.962;9.768;2022-08-20T06:03:34;99683.31;;;22.64;50.33
38780;BME280;29273;49.962;9.768;2022-08-20T06:06:18;99689.75;;;22.68;50.67
38780;BME280;29273;49.962;9.768;2022-08-20T06:08:44;99686.47;;;22.71;50.32
38780;BME280;29273;49.962;9.768;2022-08-20T06:11:10;99683.47;;;22.73;50.31
38780;BME280;29273;49.962;9.768;2022-08-20T06:13:35;99685.34;;;22.78;50.12
38780;BME280;29273;49.962;9.768;2022-08-20T06:16:01;99691.78;;;22.82;50.31
38780;BME280;29273;49.962;9.768;2022-08-20T06:18:26;99695.78;;;22.84;50.00
38780;BME280;29273;49.962;9.768;2022-08-20T06:20:52;99694.16;;;22.88;50.25
38780;BME280;29273;49.962;9.768;2022-08-20T06:23:18;99698.66;;;22.93;50.05
38780;BME280;29273;49.962;9.768;2022-08-20T06:25:44;99698.09;;;22.96;50.16
38780;BME280;29273;49.962;9.768;2022-08-20T06:28:12;99696.38;;;23.05;50.11
38780;BME280;29273;49.962;9.768;2022-08-20T06:30:38;99696.13;;;23.07;50.21
38780;BME280;29273;49.962;9.768;2022-08-20T06:33:04;99699.84;;;23.11;50.11
38780;BME280;29273;49.962;9.768;2022-08-20T06:35:29;99701.69;;;23.16;50.00
38780;BME280;29273;49.962;9.768;2022-08-20T06:37:55;99694.34;;;23.21;49.83
38780;BME280;29273;49.962;9.768;2022-08-20T06:40:26;99685.88;;;23.28;49.54
38780;BME280;29273;49.962;9.768;2022-08-20T06:42:53;99685.00;;;23.33;49.83
38780;BME280;29273;49.962;9.768;2022-08-20T06:45:21;99692.69;;;23.44;49.59
38780;BME280;29273;49.962;9.768;2022-08-20T06:47:53;99686.44;;;23.49;49.80
38780;BME280;29273;49.962;9.768;2022-08-20T06:50:22;99685.28;;;23.55;49.80
38780;BME280;29273;49.962;9.768;2022-08-20T06:52:48;99687.41;;;23.58;49.44
38780;BME280;29273;49.962;9.768;2022-08-20T06:55:15;99683.50;;;23.64;49.59
38780;BME280;29273;49.962;9.768;2022-08-20T06:57:41;99689.66;;;23.70;49.18
38780;BME280;29273;49.962;9.768;2022-08-20T07:00:11;99691.44;;;23.80;49.57
38780;BME280;29273;49.962;9.768;2022-08-20T07:02:39;99681.69;;;23.79;49.08
38780;BME280;29273;49.962;9.768;2022-08-20T07:05:05;99687.84;;;23.85;49.59
38780;BME280;29273;49.962;9.768;2022-08-20T07:07:30;99686.19;;;23.89;49.65
38780;BME280;29273;49.962;9.768;2022-08-20T07:10:03;99687.66;;;24.00;49.67
38780;BME280;29273;49.962;9.768;2022-08-20T07:12:28;99692.50;;;23.79;49.88
38780;BME280;29273;49.962;9.768;2022-08-20T07:14:54;99695.53;;;23.96;49.59
38780;BME280;29273;49.962;9.768;2022-08-20T07:17:19;99697.34;;;24.01;49.78
38780;BME280;29273;49.962;9.768;2022-08-20T07:19:45;99697.28;;;24.06;49.47
38780;BME280;29273;49.962;9.768;2022-08-20T07:22:10;99699.69;;;24.08;49.65
38780;BME280;29273;49.962;9.768;2022-08-20T07:24:38;99704.50;;;24.11;49.68
38780;BME280;29273;49.962;9.768;2022-08-20T07:27:05;99706.91;;;24.12;49.75
38780;BME280;29273;49.962;9.768;2022-08-20T07:29:30;99702.00;;;24.14;49.73
38780;BME280;29273;49.962;9.768;2022-08-20T07:32:16;99704.13;;;24.17;49.54
38780;BME280;29273;49.962;9.768;2022-08-20T07:35:08;99702.22;;;24.18;49.08
38780;BME280;29273;49.962;9.768;2022-08-20T07:37:39;99708.59;;;24.27;49.40
38780;BME280;29273;49.962;9.768;2022-08-20T07:40:08;99708.09;;;24.25;49.82
38780;BME280;29273;49.962;9.768;2022-08-20T07:42:35;99712.38;;;24.26;49.71
38780;BME280;29273;49.962;9.768;2022-08-20T07:45:12;99714.94;;;24.36;49.33
38780;BME280;29273;49.962;9.768;2022-08-20T07:47:41;99717.84;;;24.40;49.72
38780;BME280;29273;49.962;9.768;2022-08-20T07:50:09;99722.97;;;24.42;49.59
38780;BME280;29273;49.962;9.768;2022-08-20T07:52:36;99719.16;;;24.43;50.04
38780;BME280;29273;49.962;9.768;2022-08-20T07:55:03;99726.88;;;24.49;49.41
38780;BME280;29273;49.962;9.768;2022-08-20T07:57:30;99732.31;;;24.49;49.54
38780;BME280;29273;49.962;9.768;2022-08-20T07:59:56;99732.50;;;24.53;49.50
38780;BME280;29273;49.962;9.768;2022-08-20T08:02:27;99728.16;;;24.57;49.44
38780;BME280;29273;49.962;9.768;2022-08-20T08:04:53;99735.97;;;24.59;49.61
38780;BME280;29273;49.962;9.768;2022-08-20T08:07:20;99739.41;;;24.64;49.46
38780;BME280;29273;49.962;9.768;2022-08-20T08:09:47;99735.81;;;24.69;48.88
38780;BME280;29273;49.962;9.768;2022-08-20T08:12:13;99738.22;;;24.70;49.15
38780;BME280;29273;49.962;9.768;2022-08-20T08:14:40;99741.91;;;24.74;49.45
38780;BME280;29273;49.962;9.768;2022-08-20T08:17:08;99748.38;;;24.79;49.20
38780;BME280;29273;49.962;9.768;2022-08-20T08:19:41;99746.56;;;24.88;48.95
38780;BME280;29273;49.962;9.768;2022-08-20T08:22:11;99745.47;;;24.89;49.55
38780;BME280;29273;49.962;9.768;2022-08-20T08:24:39;99743.56;;;24.89;49.67
38780;BME280;29273;49.962;9.768;2022-08-20T08:27:06;99746.56;;;24.88;49.61
38780;BME280;29273;49.962;9.768;2022-08-20T08:29:33;99743.25;;;24.91;49.90
38780;BME280;29273;49.962;9.768;2022-08-20T08:32:00;99747.59;;;24.92;49.76
38780;BME280;29273;49.962;9.768;2022-08-20T08:34:26;99745.66;;;24.92;50.19
38780;BME280;29273;49.962;9.768;2022-08-20T08:36:52;99751.59;;;24.94;50.17
38780;BME280;29273;49.962;9.768;2022-08-20T08:39:18;99755.91;;;24.96;50.11
38780;BME280;29273;49.962;9.768;2022-08-20T08:41:49;99764.97;;;25.05;49.83
38780;BME280;29273;49.962;9.768;2022-08-20T08:44:28;99760.63;;;25.04;49.40
38780;BME280;29273;49.962;9.768;2022-08-20T08:47:00;99763.06;;;25.05;49.44
38780;BME280;29273;49.962;9.768;2022-08-20T08:49:32;99764.34;;;25.08;49.55
38780;BME280;29273;49.962;9.768;2022-08-20T08:54:30;99767.97;;;25.03;49.76
38780;BME280;29273;49.962;9.768;2022-08-20T08:56:58;99764.44;;;25.03;49.81
38780;BME280;29273;49.962;9.768;2022-08-20T08:59:29;99766.06;;;25.04;49.46
38780;BME280;29273;49.962;9.768;2022-08-20T09:01:58;99766.66;;;25.01;49.61
38780;BME280;29273;49.962;9.768;2022-08-20T09:04:41;99762.84;;;25.02;49.50
38780;BME280;29273;49.962;9.768;2022-08-20T09:07:08;99769.38;;;25.01;49.67
38780;BME280;29273;49.962;9.768;2022-08-20T09:09:44;99766.06;;;25.04;49.89
38780;BME280;29273;49.962;9.768;2022-08-20T09:12:13;99765.25;;;25.03;50.00
38780;BME280;29273;49.962;9.768;2022-08-20T09:14:39;99761.53;;;24.99;50.00
38780;BME280;29273;49.962;9.768;2022-08-20T09:17:05;99771.28;;;25.00;50.01
38780;BME280;29273;49.962;9.768;2022-08-20T09:19:32;99768.28;;;25.02;49.90
38780;BME280;29273;49.962;9.768;2022-08-20T09:21:57;99761.72;;;25.03;50.15
38780;BME280;29273;49.962;9.768;2022-08-20T09:24:24;99765.75;;;25.05;49.96
38780;BME280;29273;49.962;9.768;2022-08-20T09:26:49;99767.88;;;25.08;49.79
38780;BME280;29273;49.962;9.768;2022-08-20T09:29:15;99759.44;;;25.10;49.39
38780;BME280;29273;49.962;9.768;2022-08-20T09:31:42;99753.44;;;25.13;49.83
38780;BME280;29273;49.962;9.768;2022-08-20T09:34:07;99754.44;;;25.17;49.49
38780;BME280;29273;49.962;9.768;2022-08-20T09:36:33;99749.22;;;25.21;48.94
38780;BME280;29273;49.962;9.768;2022-08-20T09:39:00;99745.91;;;25.24;48.53
38780;BME280;29273;49.962;9.768;2022-08-20T09:41:25;99748.25;;;25.30;49.03
38780;BME280;29273;49.962;9.768;2022-08-20T09:43:51;99744.34;;;25.37;49.18
38780;BME280;29273;49.962;9.768;2022-08-20T09:46:16;99736.59;;;25.44;48.74
38780;BME280;29273;49.962;9.768;2022-08-20T09:48:42;99733.97;;;25.53;48.66
38780;BME280;29273;49.962;9.768;2022-08-20T09:51:07;99733.25;;;25.61;48.50
38780;BME280;29273;49.962;9.768;2022-08-20T09:53:33;99737.66;;;25.71;48.29
38780;BME280;29273;49.962;9.768;2022-08-20T09:55:58;99738.03;;;25.78;47.97
38780;BME280;29273;49.962;9.768;2022-08-20T09:58:33;99736.81;;;25.84;47.47
38780;BME280;29273;49.962;9.768;2022-08-20T10:01:05;99736.00;;;25.97;47.70
38780;BME280;29273;49.962;9.768;2022-08-20T10:03:32;99733.28;;;25.97;46.63
38780;BME280;29273;49.962;9.768;2022-08-20T10:05:57;99731.28;;;26.03;46.41
38780;BME280;29273;49.962;9.768;2022-08-20T10:08:24;99733.88;;;26.08;45.88
38780;BME280;29273;49.962;9.768;2022-08-20T10:10:50;99727.50;;;26.13;45.10
38780;BME280;29273;49.962;9.768;2022-08-20T10:13:16;99732.31;;;26.16;45.09
38780;BME280;29273;49.962;9.768;2022-08-20T10:15:41;99726.28;;;26.19;44.72
38780;BME280;29273;49.962;9.768;2022-08-20T10:18:07;99724.56;;;26.23;44.64
38780;BME280;29273;49.962;9.768;2022-08-20T10:20:33;99723.63;;;26.28;44.60
38780;BME280;29273;49.962;9.768;2022-08-20T10:22:59;99725.72;;;26.31;44.59
38780;BME280;29273;49.962;9.768;2022-08-20T10:25:25;99727.03;;;26.33;44.70
38780;BME280;29273;49.962;9.768;2022-08-20T10:27:51;99724.00;;;26.35;44.93
38780;BME280;29273;49.962;9.768;2022-08-20T10:30:16;99725.59;;;26.36;45.03
38780;BME280;29273;49.962;9.768;2022-08-20T10:32:42;99724.81;;;26.35;45.27
38780;BME280;29273;49.962;9.768;2022-08-20T10:35:07;99725.91;;;26.34;45.59
38780;BME280;29273;49.962;9.768;2022-08-20T10:37:34;99724.63;;;26.32;45.78
38780;BME280;29273;49.962;9.768;2022-08-20T10:40:00;99727.66;;;26.30;45.77
38780;BME280;29273;49.962;9.768;2022-08-20T10:42:26;99722.03;;;26.27;46.01
38780;BME280;29273;49.962;9.768;2022-08-20T10:44:51;99722.66;;;26.24;45.70
38780;BME280;29273;49.962;9.768;2022-08-20T10:47:25;99722.53;;;26.29;46.14
38780;BME280;29273;49.962;9.768;2022-08-20T10:49:55;99723.44;;;26.24;46.24
38780;BME280;29273;49.962;9.768;2022-08-20T10:52:22;99723.38;;;26.15;45.65
38780;BME280;29273;49.962;9.768;2022-08-20T10:54:47;99724.47;;;26.14;45.91
38780;BME280;29273;49.962;9.768;2022-08-20T10:57:19;99716.53;;;26.18;46.29
38780;BME280;29273;49.962;9.768;2022-08-20T10:59:46;99705.16;;;25.93;46.64
38780;BME280;29273;49.962;9.768;2022-08-20T11:02:12;99714.88;;;26.08;46.06
38780;BME280;29273;49.962;9.768;2022-08-20T11:04:37;99708.63;;;26.08;47.25
38780;BME280;29273;49.962;9.768;2022-08-20T11:07:15;99716.34;;;26.14;46.94
38780;BME280;29273;49.962;9.768;2022-08-20T11:09:42;99710.25;;;26.09;46.46
38780;BME280;29273;49.962;9.768;2022-08-20T11:12:08;99697.16;;;26.11;46.00
38780;BME280;29273;49.962;9.768;2022-08-20T11:14:33;99698.16;;;26.15;47.52
38780;BME280;29273;49.962;9.768;2022-08-20T11:17:00;99698.03;;;26.20;47.11
38780;BME280;29273;49.962;9.768;2022-08-20T11:19:26;99688.47;;;26.22;47.38
38780;BME280;29273;49.962;9.768;2022-08-20T11:21:52;99689.16;;;26.28;47.29
38780;BME280;29273;49.962;9.768;2022-08-20T11:24:17;99679.13;;;26.37;46.48
38780;BME280;29273;49.962;9.768;2022-08-20T11:26:45;99680.66;;;26.52;46.64
38780;BME280;29273;49.962;9.768;2022-08-20T11:29:12;99690.28;;;26.58;46.66
38780;BME280;29273;49.962;9.768;2022-08-20T11:31:37;99681.91;;;26.69;45.63
38780;BME280;29273;49.962;9.768;2022-08-20T11:34:03;99693.63;;;26.78;44.71
38780;BME280;29273;49.962;9.768;2022-08-20T11:36:28;99687.91;;;26.88;44.54
38780;BME280;29273;49.962;9.768;2022-08-20T11:38:54;99684.41;;;26.97;43.76
38780;BME280;29273;49.962;9.768;2022-08-20T11:41:20;99671.63;;;27.06;43.33
38780;BME280;29273;49.962;9.768;2022-08-20T11:43:45;99671.19;;;27.12;43.06
38780;BME280;29273;49.962;9.768;2022-08-20T11:46:11;99664.19;;;27.20;42.79
38780;BME280;29273;49.962;9.768;2022-08-20T11:48:36;99666.75;;;27.25;42.49
38780;BME280;29273;49.962;9.768;2022-08-20T11:51:01;99650.78;;;27.32;42.42
38780;BME280;29273;49.962;9.768;2022-08-20T11:53:28;99663.28;;;27.42;42.69
38780;BME280;29273;49.962;9.768;2022-08-20T11:55:53;99662.81;;;27.49;42.20
38780;BME280;29273;49.962;9.768;2022-08-20T11:58:19;99649.88;;;27.55;41.48
38780;BME280;29273;49.962;9.768;2022-08-20T12:00:44;99655.63;;;27.62;42.08
38780;BME280;29273;49.962;9.768;2022-08-20T12:03:10;99647.78;;;27.69;41.85
38780;BME280;29273;49.962;9.768;2022-08-20T12:05:37;99638.03;;;27.77;41.09
38780;BME280;29273;49.962;9.768;2022-08-20T12:08:03;99645.69;;;27.83;40.67
38780;BME280;29273;49.962;9.768;2022-08-20T12:10:29;99647.47;;;27.88;41.11
38780;BME280;29273;49.962;9.768;2022-08-20T12:12:55;99647.31;;;27.93;40.32
38780;BME280;29273;49.962;9.768;2022-08-20T12:15:20;99650.50;;;27.95;40.21
38780;BME280;29273;49.962;9.768;2022-08-20T12:17:46;99649.88;;;27.98;39.86
38780;BME280;29273;49.962;9.768;2022-08-20T12:20:13;99647.31;;;28.02;40.44
38780;BME280;29273;49.962;9.768;2022-08-20T12:22:39;99642.50;;;27.99;40.06
38780;BME280;29273;49.962;9.768;2022-08-20T12:25:06;99641.06;;;28.01;40.18
38780;BME280;29273;49.962;9.768;2022-08-20T12:27:34;99654.69;;;28.01;40.96
38780;BME280;29273;49.962;9.768;2022-08-20T12:30:03;99649.38;;;28.05;41.80
38780;BME280;29273;49.962;9.768;2022-08-20T12:32:30;99648.56;;;28.04;41.19
38780;BME280;29273;49.962;9.768;2022-08-20T12:34:56;99647.78;;;28.04;41.13
38780;BME280;29273;49.962;9.768;2022-08-20T12:37:24;99651.16;;;28.10;41.52
38780;BME280;29273;49.962;9.768;2022-08-20T12:39:52;99651.16;;;28.10;41.47
38780;BME280;29273;49.962;9.768;2022-08-20T12:42:19;99656.09;;;28.08;40.85
38780;BME280;29273;49.962;9.768;2022-08-20T12:44:45;99649.84;;;28.07;41.24
38780;BME280;29273;49.962;9.768;2022-08-20T12:49:40;99649.84;;;28.16;40.06
38780;BME280;29273;49.962;9.768;2022-08-20T12:52:08;99656.56;;;28.18;39.14
38780;BME280;29273;49.962;9.768;2022-08-20T12:54:33;99653.53;;;28.20;38.48
38780;BME280;29273;49.962;9.768;2022-08-20T12:56:59;99654.47;;;28.24;38.85
38780;BME280;29273;49.962;9.768;2022-08-20T12:59:25;99656.88;;;28.26;38.63
38780;BME280;29273;49.962;9.768;2022-08-20T13:01:51;99649.66;;;28.30;39.42
38780;BME280;29273;49.962;9.768;2022-08-20T13:04:17;99652.38;;;28.30;38.46
38780;BME280;29273;49.962;9.768;2022-08-20T13:06:43;99663.28;;;28.30;38.71
38780;BME280;29273;49.962;9.768;2022-08-20T13:09:10;99660.56;;;28.30;39.15
38780;BME280;29273;49.962;9.768;2022-08-20T13:11:36;99650.78;;;28.29;38.67